This is the latest recevied weather packets stored in our database for station/object S56OA-13. If no packets are shown the sender has not sent any weather packets the latest 10 day(s).
| Time | Temp. | Humidity | Pressure | Rain* | Wind** | Luminosity | Snow |
|---|---|---|---|---|---|---|---|
| 1788082992 | 33.33° C | 39% | 920.9 hPa | - | - | - | - |
| 1788081190 | 34.44° C | 39% | 925.2 hPa | - | - | - | - |
| 1788079398 | 32.78° C | 41% | 922 hPa | - | - | - | - |
| 1788077544 | 31.11° C | 42% | 916.4 hPa | - | - | - | - |
| 1788075742 | 30° C | 42% | 913.4 hPa | - | - | - | - |
| 1788073941 | 31.11° C | 41% | 915.2 hPa | - | - | - | - |
| 1788072140 | 27.78° C | 41% | 904.1 hPa | - | - | - | - |
| 1788070339 | 24.44° C | 41% | 891.1 hPa | - | - | - | - |
| 1788068538 | 21.11° C | 41% | 881 hPa | - | - | - | - |
| 1788066737 | 17.78° C | 41% | 868.5 hPa | - | - | - | - |
| 1788064936 | 16.67° C | 42% | 865.6 hPa | - | - | - | - |
| 1788063134 | 16.67° C | 42% | 865.5 hPa | - | - | - | - |
| 1788061333 | 16.11° C | 42% | 864.8 hPa | - | - | - | - |
| 1788059531 | 16.11° C | 42% | 864.6 hPa | - | - | - | - |
| 1788057730 | 16.67° C | 42% | 865.9 hPa | - | - | - | - |
| 1788055930 | 17.78° C | 42% | 869.5 hPa | - | - | - | - |
| 1788054128 | 17.78° C | 41% | 868.3 hPa | - | - | - | - |
| 1788052326 | 17.22° C | 41% | 867.2 hPa | - | - | - | - |
| 1788050525 | 15.56° C | 42% | 862.8 hPa | - | - | - | - |
| 1788048723 | 15° C | 42% | 861 hPa | - | - | - | - |
| 1788046921 | 15° C | 42% | 861.1 hPa | - | - | - | - |
| 1788045120 | 15.56° C | 42% | 862.3 hPa | - | - | - | - |
| 1788043319 | 15.56° C | 42% | 862.3 hPa | - | - | - | - |
| 1788041518 | 16.11° C | 42% | 863 hPa | - | - | - | - |
| 1788039716 | 15.56° C | 42% | 862.6 hPa | - | - | - | - |
* Rain since midnight (hover to see other rain measurements)
** Current wind speed in m/s (hover to see current wind gust speed)